Decoded Metar for KPRC (PRESCOTT in AZ, USA) (IATA:PRC) | Meteo·Mobile Aviation Weather
aviador You're here:

KPRC Decoded Metar

PRESCOTT in AZ, USA
Report Time2018-10-15 18:53:00
UTC Time2018-10-15 20:01:43
Flight Rules Old
Wind160° at 06 kt
W.Decomp.*RWY 12: 5.3 kt HW 2.7 kt RCW
RWY 21: 2.7 kt HW 5.3 kt LCW
W.Rank160° ranks 10
Current wind is below 160° avg. (6.2)
Visibility9999 m
Phenomena:N/A
Clouds:N/A
Expected CloudBase > 7,200 ft AGL from Temp-Dew spread
CeilingNone
Temp12°C (ISA +7)
Dew Point-6°C (28% RH)
AAT7.1°C
QNH1021 hPa
Density Alt5,604 ft
Elevation5,000 ft
Report Wrong Elevation
Raw Report
KPRC 151853Z 16006KT 10SM CLR 12/M06 A3014 RMK AO2 SLP169
T01221061=

Extra information for KPRC:More info

Metar Taf Metar & Taf Last 4 Metars F.Rules Stats Wind Profile Meteogram Temp Stats Airport Information Weather charts Add Link Nearby VenuesMetar ALERT Operation Metar Decoded Social comments

AIRNAV info for KPRC